Time;durP1;ratioP1;P1;durP2;ratioP2;P2;SDS_P1;SDS_P2;PMS_P1;PMS_P2;Temp;Humidity;BMP_temperature;BMP_pressure;BME280_temperature;BME280_humidity;BME280_pressure;Samples;Min_cycle;Max_cycle;Signal;HPM_P1;HPM_P2
2023/10/17 00:01:55;;;;;;;1.70;1.60;;;;;;;22.46;55.89;97690.91;4989215;28;20764;-29
2023/10/17 00:06:50;;;;;;;2.00;1.80;;;;;;;22.45;55.91;97694.31;4987822;28;20211;-32
2023/10/17 00:09:26;;;;;;;1.73;1.53;;;;;;;22.45;55.84;97699.44;4991786;28;20223;-26
2023/10/17 00:14:25;;;;;;;1.80;1.70;;;;;;;22.45;56.04;97695.19;4986929;28;20206;-26
2023/10/17 00:16:54;;;;;;;1.77;1.67;;;;;;;22.45;56.06;97694.31;4983040;28;20200;-26
2023/10/17 00:19:25;;;;;;;1.77;1.67;;;;;;;22.45;56.17;97694.31;4982912;28;20206;-26
2023/10/17 00:21:52;;;;;;;1.70;1.60;;;;;;;22.45;56.04;97691.75;4989346;28;20701;-26
2023/10/17 00:24:19;;;;;;;2.13;1.83;;;;;;;22.45;56.23;97687.50;4995913;28;20262;-26
2023/10/17 00:26:47;;;;;;;1.70;1.60;;;;;;;22.43;55.98;97689.16;4987696;28;20199;-26
2023/10/17 00:29:14;;;;;;;1.93;1.67;;;;;;;22.45;56.13;97684.06;4992068;28;20226;-26
2023/10/17 00:31:41;;;;;;;1.80;1.70;;;;;;;22.44;56.12;97685.75;4989537;28;20651;-26
2023/10/17 00:34:13;;;;;;;2.00;1.60;;;;;;;22.45;55.78;97679.81;4992789;28;20258;-26
2023/10/17 00:36:49;;;;;;;1.70;1.50;;;;;;;22.45;55.82;97682.38;4975986;28;20203;-26
2023/10/17 00:39:22;;;;;;;1.47;1.30;;;;;;;22.44;55.96;97680.63;4986180;28;20202;-26
2023/10/17 00:42:09;;;;;;;1.80;1.70;;;;;;;22.44;55.83;97672.94;4989538;28;20306;-29
2023/10/17 00:44:44;;;;;;;1.60;1.50;;;;;;;22.44;55.86;97675.50;4980681;28;20226;-26
2023/10/17 00:47:19;;;;;;;1.70;1.60;;;;;;;22.43;55.90;97663.53;4989368;28;20254;-26
2023/10/17 00:49:46;;;;;;;1.73;1.60;;;;;;;22.44;56.06;97666.97;4977548;28;20253;-26
2023/10/17 00:52:25;;;;;;;1.87;1.73;;;;;;;22.44;56.01;97660.16;4971658;28;20221;-26
2023/10/17 00:54:53;;;;;;;2.30;1.80;;;;;;;22.45;56.04;97666.16;4984604;28;20469;-26
2023/10/17 00:57:30;;;;;;;1.80;1.70;;;;;;;22.44;56.07;97670.38;4979598;28;20195;-26
2023/10/17 00:59:57;;;;;;;2.03;1.83;;;;;;;22.45;56.13;97663.59;4984461;28;20210;-28
2023/10/17 01:02:29;;;;;;;2.13;1.93;;;;;;;22.44;56.35;97657.59;4986437;28;20227;-31
2023/10/17 01:04:59;;;;;;;1.70;1.60;;;;;;;22.45;56.05;97659.34;4984526;28;20207;-27
2023/10/17 01:07:29;;;;;;;1.50;1.40;;;;;;;22.45;56.17;97661.03;4987462;28;20281;-26
2023/10/17 01:10:17;;;;;;;1.73;1.63;;;;;;;22.45;56.13;97663.59;4986827;28;20216;-26
2023/10/17 01:13:00;;;;;;;1.63;1.53;;;;;;;22.45;55.88;97659.34;4985555;28;20203;-26
2023/10/17 01:15:29;;;;;;;1.67;1.57;;;;;;;22.44;55.88;97651.63;4985118;28;20208;-26
2023/10/17 01:17:58;;;;;;;1.67;1.57;;;;;;;22.44;56.09;97656.75;4977523;28;20299;-26
2023/10/17 01:20:24;;;;;;;1.90;1.60;;;;;;;22.44;55.74;97657.59;4983184;28;20227;-26
2023/10/17 01:22:56;;;;;;;1.90;1.80;;;;;;;22.44;56.01;97651.63;4977124;28;20200;-29
2023/10/17 01:25:29;;;;;;;1.80;1.70;;;;;;;22.44;56.17;97659.31;4981995;28;20242;-28
2023/10/17 01:27:59;;;;;;;4.27;1.70;;;;;;;22.44;55.98;97659.31;4981065;28;20242;-27
2023/10/17 01:30:29;;;;;;;1.50;1.40;;;;;;;22.44;56.26;97655.03;4982940;28;20313;-26
2023/10/17 01:32:57;;;;;;;1.80;1.70;;;;;;;22.45;55.96;97661.03;4990410;28;20203;-26
2023/10/17 01:35:24;;;;;;;1.77;1.60;;;;;;;22.44;56.23;97652.47;4975343;28;20204;-28
2023/10/17 01:37:55;;;;;;;1.50;1.40;;;;;;;22.45;55.97;97653.34;4976297;28;20221;-28
2023/10/17 01:40:28;;;;;;;1.80;1.70;;;;;;;22.44;56.16;97647.34;4981683;28;20699;-26
2023/10/17 01:42:57;;;;;;;1.73;1.60;;;;;;;22.44;56.12;97641.38;4992365;28;20291;-27
2023/10/17 01:45:27;;;;;;;1.53;1.43;;;;;;;22.43;56.17;97640.50;4984967;28;20199;-26
2023/10/17 01:47:55;;;;;;;1.80;1.57;;;;;;;22.43;56.39;97637.94;4986554;28;20210;-29
2023/10/17 01:50:24;;;;;;;1.60;1.50;;;;;;;22.44;56.08;97639.66;4987517;28;20227;-31
2023/10/17 01:52:54;;;;;;;1.70;1.60;;;;;;;22.43;56.17;97640.50;4989376;28;20226;-28
2023/10/17 01:55:25;;;;;;;2.10;1.80;;;;;;;22.44;55.94;97638.81;4985893;28;20199;-26
2023/10/17 01:57:54;;;;;;;1.70;1.60;;;;;;;22.42;55.85;97638.78;4982723;28;20203;-26
2023/10/17 02:00:25;;;;;;;1.57;1.47;;;;;;;22.43;55.97;97635.38;4985858;28;20219;-28
2023/10/17 02:02:54;;;;;;;1.57;1.47;;;;;;;22.42;56.03;97631.09;4977783;28;20210;-27
2023/10/17 02:05:24;;;;;;;1.50;1.40;;;;;;;22.44;56.15;97624.28;4981680;28;20207;-26
2023/10/17 02:07:51;;;;;;;1.63;1.53;;;;;;;22.44;56.16;97626.00;4981146;28;20200;-38
2023/10/17 02:10:20;;;;;;;1.77;1.67;;;;;;;22.43;56.32;97619.13;4983040;28;20591;-27
2023/10/17 02:12:48;;;;;;;1.60;1.50;;;;;;;22.42;56.11;97623.41;4995229;28;20229;-28
2023/10/17 02:15:23;;;;;;;1.63;1.53;;;;;;;22.44;56.10;97623.44;4980946;28;20501;-26
2023/10/17 02:17:51;;;;;;;1.67;1.57;;;;;;;22.35;56.07;97603.56;4974925;28;20203;-26
2023/10/17 02:20:21;;;;;;;2.00;1.80;;;;;;;22.43;56.10;97611.44;4978230;28;20706;-26
2023/10/17 02:22:51;;;;;;;1.70;1.60;;;;;;;22.44;56.08;97613.19;4993667;28;20784;-29
2023/10/17 02:25:21;;;;;;;1.57;1.47;;;;;;;22.43;56.08;97617.44;4977351;28;20258;-27
2023/10/17 02:27:49;;;;;;;1.67;1.57;;;;;;;22.43;56.16;97608.88;4996182;28;20202;-28
2023/10/17 02:30:16;;;;;;;1.70;1.60;;;;;;;22.43;55.84;97608.88;4990442;28;20777;-26
2023/10/17 02:33:09;;;;;;;1.60;1.50;;;;;;;22.44;55.81;97615.75;4979618;28;20202;-26
2023/10/17 02:35:42;;;;;;;2.57;1.90;;;;;;;22.43;55.68;97622.56;4976342;28;20208;-26
2023/10/17 02:38:08;;;;;;;1.60;1.50;;;;;;;22.42;55.76;97625.09;4985856;28;20199;-26
2023/10/17 02:40:40;;;;;;;1.87;1.77;;;;;;;22.35;55.90;97618.06;4986866;28;20215;-26
2023/10/17 02:43:12;;;;;;;1.73;1.63;;;;;;;22.42;56.26;97628.53;4976805;28;20203;-26
2023/10/17 02:45:41;;;;;;;1.70;1.60;;;;;;;22.42;55.88;97618.28;4964763;28;20232;-26
2023/10/17 02:48:23;;;;;;;1.47;1.37;;;;;;;22.43;56.03;97614.00;4995569;28;20681;-28
2023/10/17 02:51:01;;;;;;;1.60;1.50;;;;;;;22.41;56.17;97615.69;4974837;28;20713;-30
2023/10/17 02:53:34;;;;;;;1.90;1.80;;;;;;;22.42;56.06;97614.84;4960128;28;20207;-26
2023/10/17 02:56:18;;;;;;;1.70;1.60;;;;;;;22.42;55.96;97620.84;4979735;28;20199;-27
2023/10/17 02:58:49;;;;;;;1.60;1.50;;;;;;;22.43;55.99;97624.25;4979322;28;20285;-28
2023/10/17 03:01:17;;;;;;;1.53;1.43;;;;;;;22.43;56.06;97624.25;4974188;28;20274;-28
2023/10/17 03:03:43;;;;;;;1.87;1.73;;;;;;;22.43;55.97;97621.69;4973330;28;20207;-31
2023/10/17 03:06:15;;;;;;;1.50;1.40;;;;;;;22.43;56.09;97624.25;4978206;28;20561;-26
2023/10/17 03:08:49;;;;;;;1.60;1.50;;;;;;;22.39;56.02;97619.88;4978423;28;20627;-26
2023/10/17 03:11:17;;;;;;;1.70;1.60;;;;;;;22.43;55.94;97634.50;4982949;28;20223;-26
2023/10/17 03:13:44;;;;;;;2.00;1.80;;;;;;;22.42;55.98;97628.53;4989956;28;20290;-27
2023/10/17 03:16:16;;;;;;;1.50;1.40;;;;;;;22.42;55.83;97630.22;4973682;28;20705;-26
2023/10/17 03:18:50;;;;;;;1.80;1.70;;;;;;;22.41;55.82;97620.81;4975273;28;20556;-26
2023/10/17 03:21:20;;;;;;;1.63;1.53;;;;;;;22.42;55.88;97625.97;4981130;28;20250;-26
2023/10/17 03:23:49;;;;;;;1.90;1.60;;;;;;;22.42;55.75;97632.78;4982209;28;20199;-26
2023/10/17 03:26:19;;;;;;;1.77;1.67;;;;;;;22.42;55.84;97622.53;4990423;28;20199;-29
2023/10/17 03:28:45;;;;;;;2.00;1.60;;;;;;;22.39;55.81;97625.88;4984454;28;20600;-26
2023/10/17 03:31:20;;;;;;;1.60;1.50;;;;;;;22.42;56.00;97631.09;4962918;28;20774;-29
2023/10/17 03:33:51;;;;;;;1.60;1.50;;;;;;;22.42;55.98;97630.22;4976311;28;20214;-26
2023/10/17 03:42:04;;;;;;;1.87;1.60;;;;;;;22.42;55.98;97630.22;4941334;28;20227;-26
2023/10/17 03:44:31;;;;;;;1.67;1.57;;;;;;;22.41;56.13;97631.03;4973992;28;20215;-26
2023/10/17 03:47:04;;;;;;;1.60;1.50;;;;;;;22.41;55.98;97631.03;4980184;28;20291;-28
2023/10/17 03:49:36;;;;;;;2.00;1.60;;;;;;;22.41;55.96;97620.81;4958313;28;20211;-30
2023/10/17 03:52:10;;;;;;;1.63;1.53;;;;;;;22.31;55.84;97595.75;4975098;28;20234;-27
2023/10/17 03:54:43;;;;;;;1.63;1.53;;;;;;;22.40;55.84;97619.91;4982828;28;20559;-26
2023/10/17 03:57:16;;;;;;;1.50;1.40;;;;;;;22.40;55.86;97624.16;4980951;28;20203;-27
2023/10/17 03:59:50;;;;;;;2.00;1.80;;;;;;;22.39;55.67;97620.75;4981572;28;20214;-26
2023/10/17 04:02:21;;;;;;;1.67;1.57;;;;;;;22.41;55.51;97625.91;4979269;28;20642;-31
2023/10/17 04:04:57;;;;;;;1.63;1.53;;;;;;;22.40;55.72;97617.38;4985282;28;20647;-26
2023/10/17 04:07:27;;;;;;;1.77;1.63;;;;;;;22.41;55.88;97621.66;4979561;28;20233;-28
2023/10/17 04:10:01;;;;;;;1.80;1.70;;;;;;;22.41;55.79;97624.22;4974720;28;20211;-26
2023/10/17 04:12:48;;;;;;;1.70;1.60;;;;;;;22.41;55.82;97625.91;4980003;28;20261;-30
2023/10/17 04:15:18;;;;;;;2.00;1.73;;;;;;;22.42;55.78;97633.66;4981441;28;20199;-29
2023/10/17 04:17:48;;;;;;;1.73;1.63;;;;;;;22.42;55.90;97633.66;4981304;28;20630;-26
2023/10/17 04:20:16;;;;;;;1.97;1.77;;;;;;;22.41;55.90;97626.78;4981206;28;20200;-29
2023/10/17 04:22:46;;;;;;;2.23;1.70;;;;;;;22.42;55.85;97637.88;4976572;28;20581;-26
2023/10/17 04:28:00;;;;;;;1.60;1.50;;;;;;;22.40;56.00;97625.03;4978668;28;20215;-38
2023/10/17 04:30:30;;;;;;;1.70;1.60;;;;;;;22.40;55.77;97619.91;4975556;28;20258;-29
2023/10/17 04:33:08;;;;;;;3.47;1.80;;;;;;;22.40;55.28;97626.72;4977053;28;20208;-35
2023/10/17 04:35:36;;;;;;;1.77;1.67;;;;;;;22.37;55.08;97627.53;4987249;28;20577;-26
2023/10/17 04:39:10;;;;;;;1.70;1.60;;;;;;;22.39;54.89;97627.56;4990395;28;20202;-29
2023/10/17 04:41:12;;;;;;;1.77;1.67;;;;;;;22.38;54.09;97616.44;4967658;28;20247;-26
2023/10/17 04:43:48;;;;;;;3.33;2.13;;;;;;;22.35;48.11;97616.34;4979229;28;20270;-28
2023/10/17 04:46:16;;;;;;;3.10;2.43;;;;;;;22.33;44.31;97606.91;4980688;28;20245;-26
2023/10/17 04:48:47;;;;;;;4.83;2.83;;;;;;;22.30;42.02;97610.25;4984185;28;20203;-26
2023/10/17 04:53:49;;;;;;;4.70;2.53;;;;;;;22.21;39.86;97594.66;4981245;28;20238;-27
2023/10/17 04:56:17;;;;;;;3.00;2.80;;;;;;;22.17;38.35;97600.50;4968096;28;20227;-28
2023/10/17 05:01:39;;;;;;;4.03;2.80;;;;;;;22.10;37.81;97595.16;4989372;28;20220;-30
2023/10/17 05:04:19;;;;;;;5.43;2.67;;;;;;;22.07;38.12;97589.94;4994105;28;20210;-27
2023/10/17 06:17:56;;;;;;;9.27;4.87;;;;;;;22.11;40.15;97651.50;4992705;28;20198;-25
2023/10/17 06:21:01;;;;;;;11.53;4.97;;;;;;;22.08;38.19;97651.41;4992457;28;20294;-25
2023/10/17 06:23:24;;;;;;;10.67;4.70;;;;;;;22.02;38.23;97653.81;4980571;28;20297;-25
2023/10/17 06:28:34;;;;;;;9.23;4.67;;;;;;;22.00;38.62;97641.78;4984711;28;20206;-25
2023/10/17 06:31:34;;;;;;;8.33;4.13;;;;;;;21.98;39.86;97631.50;4984553;28;20223;-25
2023/10/17 06:34:00;;;;;;;8.97;4.50;;;;;;;21.98;40.95;97638.31;4986121;28;20681;-25
2023/10/17 06:36:30;;;;;;;8.90;4.37;;;;;;;21.92;41.42;97625.34;4985723;28;20603;-25
2023/10/17 06:38:57;;;;;;;8.97;4.30;;;;;;;21.99;42.17;97640.06;4967644;28;20198;-26
2023/10/17 06:41:39;;;;;;;11.73;4.40;;;;;;;21.99;42.75;97642.63;4984768;28;20869;-25
2023/10/17 06:44:06;;;;;;;6.47;4.03;;;;;;;21.95;43.28;97641.66;4983807;28;20586;-25
2023/10/17 06:46:40;;;;;;;13.27;4.10;;;;;;;21.99;43.66;97646.03;4983468;28;20617;-25
2023/10/17 06:49:18;;;;;;;8.57;3.87;;;;;;;22.00;43.84;97642.66;4983629;28;20771;-25
2023/10/17 06:51:56;;;;;;;8.87;3.83;;;;;;;22.02;44.18;97642.72;4982306;28;20227;-29
2023/10/17 06:54:25;;;;;;;7.00;3.87;;;;;;;22.01;44.50;97644.41;4982638;28;20292;-25
2023/10/17 06:56:55;;;;;;;9.27;3.97;;;;;;;22.01;44.74;97649.53;4983381;28;20740;-25
2023/10/17 06:59:24;;;;;;;6.63;3.57;;;;;;;22.02;44.60;97648.69;4984732;28;20210;-26
2023/10/17 07:02:03;;;;;;;7.17;3.90;;;;;;;22.03;44.78;97652.13;4984274;28;20211;-25
2023/10/17 07:04:29;;;;;;;8.50;4.00;;;;;;;22.05;44.97;97650.47;4984891;28;20207;-25
2023/10/17 07:06:57;;;;;;;7.53;3.93;;;;;;;22.05;44.50;97647.94;4984468;28;20218;-27
2023/10/17 07:09:25;;;;;;;13.67;3.87;;;;;;;22.06;45.01;97650.53;4984555;28;20298;-31
2023/10/17 07:11:52;;;;;;;7.47;3.67;;;;;;;22.08;45.51;97653.13;4984789;28;20285;-25
2023/10/17 07:14:22;;;;;;;4.67;3.03;;;;;;;22.09;45.88;97654.84;4982976;28;20215;-25
2023/10/17 07:16:49;;;;;;;5.20;3.33;;;;;;;22.10;46.04;97649.78;4984532;28;20701;-28
2023/10/17 07:22:05;;;;;;;5.67;3.43;;;;;;;22.15;46.59;97660.16;4987458;28;20666;-25
2023/10/17 07:24:33;;;;;;;4.53;3.30;;;;;;;22.16;46.78;97659.31;4984008;28;20203;-25
2023/10/17 07:27:01;;;;;;;5.20;3.27;;;;;;;22.17;46.90;97653.41;4984479;28;20281;-25
2023/10/17 07:29:33;;;;;;;5.87;3.77;;;;;;;22.18;47.22;97653.44;4983023;28;20326;-25
2023/10/17 07:32:09;;;;;;;7.47;3.37;;;;;;;22.18;47.36;97652.56;4980554;28;20415;-25
2023/10/17 07:34:36;;;;;;;10.07;3.30;;;;;;;22.19;47.77;97649.16;4984518;28;20256;-26
2023/10/17 07:42:40;;;;;;;4.47;3.00;;;;;;;22.22;48.07;97657.81;4985206;28;20306;-25
2023/10/17 07:45:14;;;;;;;4.23;2.80;;;;;;;21.53;47.86;97540.59;4985857;28;20214;-26
2023/10/17 07:47:41;;;;;;;4.87;3.17;;;;;;;22.25;48.19;97673.25;4983069;28;20638;-25
2023/10/17 07:50:12;;;;;;;6.00;2.80;;;;;;;22.26;48.33;97667.31;4983089;28;20207;-25
2023/10/17 07:52:50;;;;;;;4.20;2.77;;;;;;;22.28;48.45;97667.34;4983441;28;20305;-25
2023/10/17 07:55:19;;;;;;;3.73;2.47;;;;;;;22.28;48.53;97657.09;4983704;28;20210;-25
2023/10/17 07:57:51;;;;;;;4.50;2.93;;;;;;;22.29;49.02;97657.16;4981886;28;20210;-27
2023/10/17 08:00:33;;;;;;;5.50;3.20;;;;;;;22.31;49.29;97655.50;4979077;28;20551;-25
2023/10/17 08:03:07;;;;;;;7.83;3.17;;;;;;;22.32;49.32;97648.72;4982773;28;20293;-25
2023/10/17 08:05:37;;;;;;;4.67;2.83;;;;;;;22.32;49.55;97649.56;4980832;28;20227;-25
2023/10/17 08:08:08;;;;;;;4.07;2.90;;;;;;;22.33;49.89;97658.13;4980943;28;20588;-27
2023/10/17 08:10:39;;;;;;;3.67;2.50;;;;;;;22.33;50.21;97653.88;4987431;28;20302;-25
2023/10/17 08:13:08;;;;;;;4.83;2.70;;;;;;;22.33;50.30;97650.44;4986571;28;20230;-27
2023/10/17 08:15:53;;;;;;;3.97;2.63;;;;;;;22.33;50.40;97645.31;4987474;28;20317;-25
2023/10/17 08:18:27;;;;;;;3.60;2.30;;;;;;;22.33;50.44;97643.63;4970284;28;20207;-25
2023/10/17 08:21:33;;;;;;;4.07;2.40;;;;;;;22.34;50.35;97653.03;4986652;28;20207;-25
2023/10/17 08:23:41;;;;;;;4.20;2.43;;;;;;;22.34;50.22;97657.28;4988532;28;20210;-25
2023/10/17 08:26:11;;;;;;;4.77;2.67;;;;;;;22.35;50.35;97664.16;5000978;28;20246;-26
2023/10/17 08:28:46;;;;;;;5.33;2.50;;;;;;;22.34;50.48;97665.84;4997116;28;20230;-25
2023/10/17 08:42:14;;;;;;;3.13;2.30;;;;;;;22.37;51.77;97654.81;4990269;28;20210;-25
2023/10/17 08:44:42;;;;;;;4.53;2.57;;;;;;;22.32;51.85;97643.59;4984072;28;20214;-34
2023/10/17 08:47:15;;;;;;;3.67;2.30;;;;;;;22.35;52.04;97649.66;4986441;28;20287;-26
2023/10/17 08:49:44;;;;;;;3.00;2.50;;;;;;;22.35;51.92;97651.34;4985381;28;20277;-25
2023/10/17 08:52:35;;;;;;;4.50;2.47;;;;;;;22.35;52.23;97653.91;4985646;28;20340;-25
2023/10/17 08:55:05;;;;;;;3.40;2.40;;;;;;;22.35;52.02;97646.25;4993050;28;20210;-25
2023/10/17 08:57:32;;;;;;;2.67;2.00;;;;;;;22.35;51.92;97647.09;4987211;28;20230;-33
2023/10/17 09:00:23;;;;;;;4.10;2.47;;;;;;;22.35;51.75;97639.41;4986765;28;20222;-25
2023/10/17 09:02:55;;;;;;;4.63;2.17;;;;;;;22.36;51.85;97635.16;4988139;28;20210;-30
2023/10/17 09:05:26;;;;;;;3.93;2.50;;;;;;;22.36;52.05;97643.72;4986300;28;20215;-25
2023/10/17 09:07:56;;;;;;;4.73;2.37;;;;;;;22.37;52.13;97642.00;4987714;28;20677;-25
2023/10/17 09:10:36;;;;;;;2.87;2.50;;;;;;;22.36;52.48;97625.78;4985646;28;20293;-25
2023/10/17 09:15:56;;;;;;;3.20;2.23;;;;;;;22.36;52.56;97623.25;4987080;28;20660;-34
2023/10/17 09:18:27;;;;;;;3.23;2.20;;;;;;;22.39;52.62;97640.38;4986725;28;20330;-25
2023/10/17 09:20:55;;;;;;;2.47;1.93;;;;;;;22.37;52.70;97629.19;4986083;28;20771;-25
2023/10/17 09:23:23;;;;;;;3.00;2.20;;;;;;;22.38;53.10;97636.94;4984829;28;20721;-25
2023/10/17 09:25:58;;;;;;;2.87;2.07;;;;;;;22.37;52.95;97634.31;4985498;28;20230;-27
2023/10/17 09:28:25;;;;;;;2.93;2.10;;;;;;;22.36;52.87;97627.47;4985995;28;20693;-25
2023/10/17 09:30:57;;;;;;;3.00;2.40;;;;;;;22.36;52.92;97624.91;4985809;28;20295;-25
2023/10/17 09:33:31;;;;;;;2.40;1.90;;;;;;;22.36;52.97;97633.47;4987678;28;20219;-25
2023/10/17 09:35:59;;;;;;;3.23;2.40;;;;;;;22.34;53.14;97624.88;4985823;28;20235;-25
2023/10/17 09:38:27;;;;;;;3.30;2.40;;;;;;;22.35;53.03;97636.00;4987204;28;20210;-25
2023/10/17 09:41:05;;;;;;;3.07;2.63;;;;;;;22.36;53.03;97635.16;4987608;28;20211;-25
2023/10/17 09:43:47;;;;;;;3.40;2.37;;;;;;;22.36;53.18;97630.91;4987346;28;20286;-25
2023/10/17 09:46:14;;;;;;;2.97;2.13;;;;;;;22.36;53.27;97622.34;4971147;28;20241;-25
2023/10/17 09:48:48;;;;;;;3.17;2.23;;;;;;;22.36;53.40;97628.34;4969650;28;20674;-25
2023/10/17 09:51:19;;;;;;;3.87;2.40;;;;;;;22.37;53.64;97627.53;4985274;28;20209;-25
2023/10/17 09:53:50;;;;;;;3.03;2.30;;;;;;;22.34;53.46;97614.63;4986615;28;20265;-25
2023/10/17 09:56:42;;;;;;;3.00;2.10;;;;;;;22.34;53.92;97622.31;4984979;28;20317;-25
2023/10/17 09:59:18;;;;;;;3.43;2.30;;;;;;;22.31;53.77;97604.31;4972738;28;20287;-26
2023/10/17 10:01:46;;;;;;;2.83;2.20;;;;;;;22.37;53.83;97622.41;4970220;28;20286;-25
2023/10/17 10:04:13;;;;;;;3.27;2.37;;;;;;;22.37;53.85;97624.06;4985113;28;20785;-25
2023/10/17 10:06:39;;;;;;;3.47;2.50;;;;;;;22.36;53.71;97628.34;4984318;28;20664;-26
2023/10/17 10:09:15;;;;;;;4.27;2.30;;;;;;;22.37;53.83;97629.19;4986477;28;20230;-27
2023/10/17 10:11:48;;;;;;;4.10;2.40;;;;;;;22.36;53.82;97627.47;4986603;28;20250;-25
2023/10/17 10:14:15;;;;;;;3.50;2.20;;;;;;;22.35;53.91;97624.03;4984673;28;20345;-26
2023/10/17 10:16:54;;;;;;;2.67;2.10;;;;;;;21.61;53.99;97495.63;4985083;28;20317;-25
2023/10/17 10:19:41;;;;;;;2.67;2.13;;;;;;;22.36;54.20;97619.78;4984510;28;20216;-25
2023/10/17 10:22:10;;;;;;;1.93;1.73;;;;;;;22.34;54.25;97606.94;4985574;28;20239;-25
2023/10/17 10:24:37;;;;;;;2.87;2.23;;;;;;;22.35;54.28;97607.84;4985899;28;20206;-25
2023/10/17 10:27:10;;;;;;;2.47;2.20;;;;;;;22.35;54.48;97592.47;4980780;28;20222;-25
2023/10/17 10:29:37;;;;;;;2.20;2.00;;;;;;;22.35;54.59;97600.16;4983050;28;20221;-25
2023/10/17 10:32:07;;;;;;;2.97;2.10;;;;;;;22.36;54.49;97586.50;4982942;28;20297;-25
2023/10/17 10:34:36;;;;;;;2.63;2.03;;;;;;;22.35;54.96;97588.19;4968621;28;20652;-25
2023/10/17 10:37:03;;;;;;;3.20;2.10;;;;;;;22.34;54.95;97594.16;4985901;28;20223;-25
2023/10/17 10:39:30;;;;;;;2.90;2.30;;;;;;;22.34;54.71;97588.16;4984717;28;20203;-25
2023/10/17 10:41:58;;;;;;;2.53;2.00;;;;;;;22.35;54.86;97592.47;4983010;28;20203;-25
2023/10/17 10:44:27;;;;;;;3.07;2.00;;;;;;;22.31;54.70;97588.94;4983501;28;20218;-25
2023/10/17 10:46:54;;;;;;;2.43;2.23;;;;;;;22.34;54.73;97593.28;4966961;28;20230;-25
2023/10/17 10:49:28;;;;;;;2.67;2.37;;;;;;;22.33;54.96;97587.31;4983930;28;20206;-25
2023/10/17 10:52:00;;;;;;;2.20;2.00;;;;;;;22.33;54.83;97584.75;4983619;28;20242;-25
2023/10/17 10:54:47;;;;;;;4.83;2.17;;;;;;;22.34;55.01;97588.16;4983824;28;20276;-25
2023/10/17 10:57:15;;;;;;;2.57;2.20;;;;;;;22.33;55.01;97582.19;4984455;28;20242;-25
2023/10/17 10:59:51;;;;;;;3.40;2.30;;;;;;;22.34;54.54;97568.53;4982498;28;20586;-25
2023/10/17 11:02:20;;;;;;;7.23;2.40;;;;;;;22.34;54.64;97565.97;4983327;28;20202;-25
2023/10/17 11:04:47;;;;;;;5.57;2.43;;;;;;;22.35;54.82;97564.31;4985246;28;20285;-25
2023/10/17 11:07:21;;;;;;;2.77;2.30;;;;;;;22.38;55.03;97566.94;4982202;28;20284;-25
2023/10/17 11:10:07;;;;;;;2.73;2.20;;;;;;;22.38;55.17;97566.94;4983219;28;20210;-25
2023/10/17 11:12:34;;;;;;;3.10;2.27;;;;;;;22.39;55.14;97555.88;4982846;28;20810;-27
2023/10/17 11:15:26;;;;;;;3.17;2.00;;;;;;;22.39;55.28;97553.31;4982311;28;20207;-28
2023/10/17 11:20:40;;;;;;;3.23;2.30;;;;;;;22.39;55.53;97546.50;4942319;28;20559;-27
2023/10/17 11:23:09;;;;;;;3.40;2.30;;;;;;;22.39;55.51;97551.63;4944128;28;20219;-27
2023/10/17 11:25:36;;;;;;;2.13;1.90;;;;;;;22.18;55.64;97517.78;4943894;28;20282;-29
2023/10/17 11:28:08;;;;;;;3.50;2.00;;;;;;;22.41;55.44;97544.81;4950727;28;20232;-28
2023/10/17 11:30:42;;;;;;;2.87;2.20;;;;;;;22.43;55.56;97545.75;4942720;28;20700;-28
2023/10/17 11:33:28;;;;;;;3.30;1.93;;;;;;;22.45;55.65;97545.78;4949376;28;20685;-26
2023/10/17 11:35:58;;;;;;;3.10;2.17;;;;;;;22.46;55.70;97547.50;4951328;28;20819;-28
2023/10/17 11:38:40;;;;;;;4.83;2.30;;;;;;;22.48;55.61;97556.09;4949135;28;20280;-26
2023/10/17 11:41:15;;;;;;;4.67;2.50;;;;;;;22.49;55.55;97555.25;4951746;28;20200;-29
2023/10/17 11:43:51;;;;;;;6.60;2.93;;;;;;;22.49;55.66;97553.56;4963633;28;20204;-28
2023/10/17 11:46:31;;;;;;;9.03;3.37;;;;;;;22.50;55.69;97542.53;4952292;28;20204;-27
2023/10/17 11:49:14;;;;;;;10.37;3.83;;;;;;;22.51;55.67;97544.28;4948534;28;20595;-29
2023/10/17 11:51:41;;;;;;;12.73;4.20;;;;;;;22.52;55.93;97542.56;4948348;28;20235;-26
2023/10/17 11:54:08;;;;;;;15.27;4.93;;;;;;;22.52;55.74;97550.25;4948401;28;20204;-26
2023/10/17 11:56:54;;;;;;;13.93;4.60;;;;;;;22.51;55.91;97546.84;4944731;28;20295;-34
2023/10/17 11:59:21;;;;;;;18.40;5.30;;;;;;;22.49;56.05;97545.03;4967014;28;20639;-26
2023/10/17 12:01:54;;;;;;;18.63;6.20;;;;;;;22.52;56.14;97548.56;4948973;28;20208;-27
2023/10/17 12:04:23;;;;;;;25.27;8.33;;;;;;;22.53;56.51;97549.44;4951807;28;20232;-28
2023/10/17 12:06:50;;;;;;;21.17;7.87;;;;;;;22.54;56.65;97548.59;4953219;28;20258;-26
2023/10/17 12:09:26;;;;;;;24.23;9.20;;;;;;;22.54;56.84;97539.25;4952269;28;20220;-29
2023/10/17 12:11:54;;;;;;;32.50;9.70;;;;;;;22.54;56.83;97539.25;4951563;28;20200;-26
2023/10/17 12:14:21;;;;;;;24.40;9.30;;;;;;;22.56;56.68;97541.84;4945152;28;20589;-26
2023/10/17 12:16:54;;;;;;;29.47;10.83;;;;;;;22.57;56.54;97543.56;4947784;28;20212;-27
2023/10/17 12:19:26;;;;;;;23.30;9.30;;;;;;;22.58;56.53;97551.28;4952447;28;20271;-26
2023/10/17 12:22:00;;;;;;;24.07;9.73;;;;;;;22.59;56.43;97562.41;4952249;28;20238;-26
2023/10/17 12:24:34;;;;;;;32.77;10.67;;;;;;;22.60;56.66;97557.31;4949983;28;20204;-26
2023/10/17 12:27:01;;;;;;;30.67;11.17;;;;;;;22.62;56.67;97547.13;4947583;28;20200;-30
2023/10/17 12:29:29;;;;;;;31.33;10.97;;;;;;;22.61;56.92;97533.44;4967605;28;20308;-29
2023/10/17 12:31:59;;;;;;;29.37;12.10;;;;;;;22.60;55.04;97535.97;4940776;28;20197;-26
2023/10/17 12:34:29;;;;;;;30.80;11.47;;;;;;;22.57;51.87;97534.19;4947834;28;20208;-27
2023/10/17 12:36:56;;;;;;;30.83;9.40;;;;;;;22.54;48.46;97541.81;4942901;28;20209;-26
2023/10/17 12:39:23;;;;;;;19.33;7.77;;;;;;;22.52;47.42;97537.44;4953461;28;20216;-31
2023/10/17 12:41:50;;;;;;;16.00;6.97;;;;;;;22.49;46.38;97521.97;4955702;28;20232;-30
2023/10/17 12:44:20;;;;;;;12.97;6.50;;;;;;;22.46;45.09;97514.22;4952689;28;20200;-28
2023/10/17 12:46:47;;;;;;;15.20;6.73;;;;;;;22.46;45.73;97521.88;4953192;28;20256;-27
2023/10/17 12:49:14;;;;;;;16.20;6.37;;;;;;;22.43;46.59;97527.81;4954826;28;20642;-29
2023/10/17 12:51:41;;;;;;;12.23;6.80;;;;;;;22.43;47.50;97530.38;4948247;28;20201;-30
2023/10/17 12:54:08;;;;;;;11.43;5.93;;;;;;;22.35;48.22;97513.09;4948113;28;20604;-26
2023/10/17 12:56:39;;;;;;;19.30;6.67;;;;;;;22.42;48.73;97525.22;4953165;28;20224;-31
2023/10/17 12:59:12;;;;;;;13.30;6.13;;;;;;;22.43;49.25;97524.38;4954734;28;20220;-28
2023/10/17 13:01:39;;;;;;;13.00;5.87;;;;;;;22.33;49.57;97512.16;4956337;28;20215;-26
2023/10/17 13:04:09;;;;;;;13.37;5.80;;;;;;;22.42;49.81;97520.09;4956253;28;20203;-26
2023/10/17 13:06:37;;;;;;;17.33;6.63;;;;;;;22.41;50.21;97500.44;4956600;28;20627;-26
2023/10/17 13:09:04;;;;;;;13.17;6.10;;;;;;;22.40;50.36;97504.69;4956179;28;20299;-26
2023/10/17 13:11:32;;;;;;;12.03;5.97;;;;;;;22.39;50.68;97513.22;4941766;28;20571;-34
2023/10/17 13:13:59;;;;;;;18.07;6.47;;;;;;;22.29;51.53;97508.66;4937288;28;20327;-29
2023/10/17 13:16:28;;;;;;;15.03;6.27;;;;;;;22.39;50.98;97520.88;4937644;28;20208;-31
2023/10/17 13:19:06;;;;;;;14.00;5.70;;;;;;;22.40;51.41;97511.50;4941423;28;20323;-34
2023/10/17 13:21:38;;;;;;;15.63;6.20;;;;;;;22.39;51.78;97502.97;4939113;28;20208;-31
2023/10/17 13:24:09;;;;;;;15.10;6.23;;;;;;;22.40;51.90;97517.50;4941092;28;20708;-36
2023/10/17 13:26:37;;;;;;;13.87;6.00;;;;;;;22.40;52.17;97512.38;4937862;28;20725;-32
2023/10/17 13:29:04;;;;;;;14.03;6.17;;;;;;;22.40;52.49;97509.81;4938621;28;20229;-33
2023/10/17 13:31:31;;;;;;;10.03;5.57;;;;;;;22.41;52.81;97513.25;4938559;28;20240;-31
2023/10/17 13:33:58;;;;;;;12.33;6.00;;;;;;;22.38;53.09;97503.78;4940112;28;20271;-28
2023/10/17 13:36:25;;;;;;;11.77;5.90;;;;;;;22.40;52.59;97491.00;4939201;28;20676;-32
2023/10/17 13:38:52;;;;;;;11.67;5.30;;;;;;;22.39;51.65;97504.66;4940436;28;20252;-30
2023/10/17 13:41:20;;;;;;;12.43;6.33;;;;;;;22.39;51.87;97486.72;4937219;28;20738;-34
2023/10/17 13:43:47;;;;;;;13.47;5.77;;;;;;;22.37;52.14;97484.13;4939728;28;20212;-29
2023/10/17 13:46:16;;;;;;;11.27;5.87;;;;;;;22.37;52.37;97491.81;4938952;28;20212;-28
2023/10/17 13:48:48;;;;;;;10.20;5.60;;;;;;;22.36;52.78;97487.53;4939605;28;20236;-36
2023/10/17 13:51:15;;;;;;;13.13;5.80;;;;;;;22.37;53.00;97485.81;4937389;28;20201;-40